Washington, District of Columbia
Current Conditions -  °F | °C
As of 12:52 PM on Thursday 30 Oct 2014 (Local Time) from KDCA Reporting Station
Scattered Clouds Scattered Clouds  
Wind Chill: 61°   Ceiling: Unl
Heat Index: 61°   Visibility: 10mi
Dew Point: 38°   Wind: 10mph
Humidity: 42%   Direction: 330°NNW
Pressure: 30.06"   Gusts: NA
Location:  38.89°N, 77.03°W
Report Text: KDCA 301652Z 33009KT 10SM SCT050 16/03 A3006 RMK AO2 SLP179 T01610033
Loading
Personal Weather Stations






























Interactive Weather Map New forecast layout! Learn more

10-Day Weather Forecast

Advertisements
Track Severe Weather on mobile